Two Harbors, MN

4:35 PM CST on February 07, 2016 (GMT -0600)
Helgeson | | Change Station
CLOSE
Current Station
Airport
Location: Two Harbors,
Elevation: 1076 ft
Nearby Weather Stations

Elev 1076 ft 47.05 °N, 91.75 °W | Updated 21 minutes ago

Overcast
Overcast
37 °F
Feels Like 33 °F
N
6
Wind Variable Wind from WNW

Today
High -- | Low -- °F
--% Chance of Precip.
Yesterday
High -- | Low -- °F
Precip. -- in
Pressure 29.45 in
Visibility 7.0 miles
Clouds Scattered Clouds 2600 ft
Overcast 4800 ft
Windchill 33 °F
Dew Point 32 °F
Humidity 81%
Rainfall 0.03 in
Snow Depth Not available.
7:24 AM 5:18 PM
Waning Crescent, 1% visible
METAR KTWM 072214Z AUTO 29005KT 7SM SCT026 OVC048 03/00 A2945 RMK AO2
Pressure 29.45 in
Visibility 7.0 miles
Clouds Scattered Clouds 2600 ft
Overcast 4800 ft
Windchill 33 °F
Dew Point 32 °F
Humidity 81%
Rainfall 0.03 in
Snow Depth Not available.
7:24 AM 5:18 PM
Waning Crescent, 1% visible
METAR KTWM 072214Z AUTO 29005KT 7SM SCT026 OVC048 03/00 A2945 RMK AO2

10-Day Weather Forecast

Almanac

Astronomy

Feb. 07, 2016 Rise Set
Actual Time
Civil Twilight
Nautical Twilight
Astronomical Twilight
Moon
Length of Visible Light
Length of Day
Tomorrow will be .
, % of the Moon is Illuminated

Today's Extremes

State Highs State Lows

Community

WunderPhotos

Upload Photos

1,891,324 photos uploaded!

WunderBlog® & News

Nearby

Air Quality

  Air Quality AQ Index Pollutant
Not available.

Snow Depth

Station Depth Elevation

Earthquake Activity

City Distance Mag. Time & Date
Minimum magnitude displayed is 2.5.

Coastal Water Temperatures

Place Temperature

Stations

Nearby Weather Stations

Station Location Temp. Windchill Dew Point Humidity Wind Precip. Elev Updated Type
                   

Watches & Warnings

There are currently no watches in effect.